Time;durP1;ratioP1;P1;durP2;ratioP2;P2;SDS_P1;SDS_P2;PMS_P1;PMS_P2;Temp;Humidity;BMP_temperature;BMP_pressure;BME280_temperature;BME280_humidity;BME280_pressure;Samples;Min_cycle;Max_cycle;Signal;HPM_P1;HPM_P2
2024/02/15 00:00:07;;;;;;;18.40;12.53;;;11.20;99.90;;;;;;5031657;28;21086;-60
2024/02/15 00:02:36;;;;;;;17.13;11.77;;;11.20;99.90;;;;;;5029480;28;20482;-60
2024/02/15 00:05:05;;;;;;;19.03;12.43;;;11.20;99.90;;;;;;5029958;28;20475;-59
2024/02/15 00:07:34;;;;;;;15.87;11.17;;;11.20;99.90;;;;;;5028557;28;20502;-60
2024/02/15 00:10:05;;;;;;;16.50;12.40;;;11.20;99.90;;;;;;5038923;28;20470;-60
2024/02/15 00:12:33;;;;;;;15.27;10.90;;;11.20;99.90;;;;;;5038508;28;20483;-60
2024/02/15 00:15:01;;;;;;;15.80;11.13;;;11.20;99.90;;;;;;5037154;28;20565;-60
2024/02/15 00:17:30;;;;;;;14.70;11.40;;;11.20;99.90;;;;;;5033217;28;20505;-59
2024/02/15 00:20:00;;;;;;;16.40;11.40;;;11.20;99.90;;;;;;5025641;28;20478;-59
2024/02/15 00:22:28;;;;;;;13.73;10.73;;;11.20;99.90;;;;;;5026298;28;20856;-62
2024/02/15 00:24:55;;;;;;;15.90;11.60;;;11.20;99.90;;;;;;5028837;28;20524;-60
2024/02/15 00:27:25;;;;;;;16.67;11.60;;;11.20;99.90;;;;;;5027915;28;20585;-60
2024/02/15 00:29:53;;;;;;;15.40;12.17;;;11.20;99.90;;;;;;5038305;28;20493;-60
2024/02/15 00:32:21;;;;;;;16.83;12.57;;;11.20;99.90;;;;;;5034984;28;20551;-60
2024/02/15 00:34:49;;;;;;;17.10;12.40;;;11.20;99.90;;;;;;5027614;28;20556;-60
2024/02/15 00:37:18;;;;;;;15.97;12.30;;;11.20;99.90;;;;;;5035706;28;21025;-60
2024/02/15 00:39:46;;;;;;;16.00;11.70;;;11.20;99.90;;;;;;5036137;28;20557;-60
2024/02/15 00:42:15;;;;;;;16.63;12.83;;;11.20;99.90;;;;;;5037600;28;20529;-60
2024/02/15 00:44:45;;;;;;;18.40;13.90;;;11.20;99.90;;;;;;5039995;28;20470;-60
2024/02/15 00:47:13;;;;;;;19.17;13.63;;;11.30;99.90;;;;;;5037629;28;20486;-60
2024/02/15 00:49:41;;;;;;;17.60;13.27;;;11.30;99.90;;;;;;5034254;28;20857;-60
2024/02/15 00:52:09;;;;;;;18.03;13.43;;;11.30;99.90;;;;;;5032379;28;20576;-60
2024/02/15 00:54:37;;;;;;;17.80;13.93;;;11.30;99.90;;;;;;5030611;28;20602;-60
2024/02/15 00:57:05;;;;;;;19.27;15.20;;;11.30;99.90;;;;;;5037091;28;20487;-60
2024/02/15 00:59:35;;;;;;;18.27;13.93;;;11.30;99.90;;;;;;5034016;28;20482;-60
2024/02/15 01:02:05;;;;;;;20.77;14.60;;;11.30;99.90;;;;;;5036686;28;21014;-60
2024/02/15 01:04:34;;;;;;;20.90;13.90;;;11.30;99.90;;;;;;5035639;28;20494;-60
2024/02/15 01:07:02;;;;;;;19.17;14.40;;;11.30;99.90;;;;;;5027563;28;20494;-60
2024/02/15 01:09:31;;;;;;;22.90;15.23;;;11.30;99.90;;;;;;5028070;28;20816;-59
2024/02/15 01:11:59;;;;;;;20.00;16.10;;;11.30;99.90;;;;;;5032448;28;20538;-60
2024/02/15 01:14:30;;;;;;;19.10;14.67;;;11.30;99.90;;;;;;5030846;28;20498;-60
2024/02/15 01:16:58;;;;;;;19.90;14.57;;;11.30;99.90;;;;;;5036610;28;20479;-59
2024/02/15 01:19:28;;;;;;;20.33;15.57;;;11.30;99.90;;;;;;5029248;28;20495;-60
2024/02/15 01:21:58;;;;;;;20.00;16.03;;;11.30;99.90;;;;;;5027282;28;20509;-60
2024/02/15 01:24:26;;;;;;;19.90;15.47;;;11.30;99.90;;;;;;5028874;28;21069;-59
2024/02/15 01:26:54;;;;;;;22.57;16.70;;;11.30;99.90;;;;;;5031904;28;20494;-60
2024/02/15 01:29:22;;;;;;;21.13;16.03;;;11.30;99.90;;;;;;5027287;28;20478;-59
2024/02/15 01:31:50;;;;;;;20.70;15.40;;;11.30;99.90;;;;;;5029612;28;20577;-60
2024/02/15 01:34:17;;;;;;;19.97;16.17;;;11.30;99.90;;;;;;5027778;28;20556;-60
2024/02/15 01:36:48;;;;;;;20.80;15.80;;;11.30;99.90;;;;;;5029642;28;20505;-60
2024/02/15 01:39:17;;;;;;;21.77;16.90;;;11.30;99.90;;;;;;5032515;28;20517;-60
2024/02/15 01:41:50;;;;;;;22.77;16.80;;;11.30;99.90;;;;;;5035915;28;20546;-60
2024/02/15 01:44:20;;;;;;;19.47;15.70;;;11.30;99.90;;;;;;5035734;28;21008;-60
2024/02/15 01:46:49;;;;;;;21.07;16.17;;;11.40;99.90;;;;;;5036675;28;20498;-59
2024/02/15 01:49:17;;;;;;;23.60;16.40;;;11.40;99.90;;;;;;5029736;28;20561;-60
2024/02/15 01:51:48;;;;;;;19.90;15.83;;;11.40;99.90;;;;;;5020376;28;20497;-60
2024/02/15 01:54:16;;;;;;;22.10;16.73;;;11.40;99.90;;;;;;5027498;28;21404;-60
2024/02/15 01:56:45;;;;;;;22.70;16.47;;;11.40;99.90;;;;;;5028624;28;20498;-60
2024/02/15 01:59:16;;;;;;;22.40;16.30;;;11.40;99.90;;;;;;5028984;28;20887;-60
2024/02/15 02:01:45;;;;;;;21.63;15.87;;;11.40;99.90;;;;;;5026956;28;20493;-60
2024/02/15 02:04:13;;;;;;;23.70;16.60;;;11.40;99.90;;;;;;5030147;28;20498;-60
2024/02/15 02:06:41;;;;;;;23.80;16.80;;;11.40;99.90;;;;;;5027534;28;21104;-60
2024/02/15 02:09:14;;;;;;;24.70;16.73;;;11.40;99.90;;;;;;5028507;28;20464;-60
2024/02/15 02:11:42;;;;;;;19.80;15.77;;;11.40;99.90;;;;;;5027528;28;21078;-60
2024/02/15 02:14:11;;;;;;;21.60;16.30;;;11.40;99.90;;;;;;5028524;28;20467;-60
2024/02/15 02:16:39;;;;;;;23.23;16.50;;;11.40;99.90;;;;;;5028122;28;20560;-60
2024/02/15 02:19:08;;;;;;;23.13;16.87;;;11.40;99.90;;;;;;5028754;28;20975;-60
2024/02/15 02:21:39;;;;;;;18.90;14.80;;;11.40;99.90;;;;;;5024933;28;20489;-59
2024/02/15 02:24:14;;;;;;;22.60;16.13;;;11.40;99.90;;;;;;5029966;28;20585;-61
2024/02/15 02:26:44;;;;;;;21.13;15.93;;;11.40;99.90;;;;;;5027740;28;21042;-59
2024/02/15 02:29:13;;;;;;;20.70;15.50;;;11.40;99.90;;;;;;5031410;28;20469;-60
2024/02/15 02:31:42;;;;;;;22.50;15.27;;;11.40;99.90;;;;;;5033376;28;21231;-60
2024/02/15 02:34:10;;;;;;;21.73;16.23;;;11.40;99.90;;;;;;5035021;28;20554;-60
2024/02/15 02:36:40;;;;;;;22.20;16.13;;;11.40;99.90;;;;;;5028174;28;20624;-60
2024/02/15 02:39:08;;;;;;;23.47;16.17;;;11.40;99.90;;;;;;5024396;28;20464;-59
2024/02/15 02:41:36;;;;;;;19.30;14.57;;;11.40;99.90;;;;;;5029634;28;20559;-59
2024/02/15 02:44:05;;;;;;;20.03;14.40;;;11.40;99.90;;;;;;5037781;28;20868;-60
2024/02/15 02:46:33;;;;;;;20.50;16.23;;;11.40;99.90;;;;;;5039722;28;20570;-61
2024/02/15 02:49:01;;;;;;;19.70;14.50;;;11.40;99.90;;;;;;5036435;28;20569;-60
2024/02/15 02:51:30;;;;;;;21.17;14.30;;;11.40;99.90;;;;;;5029392;28;20882;-60
2024/02/15 02:53:58;;;;;;;20.90;15.33;;;11.40;99.90;;;;;;5037655;28;20462;-60
2024/02/15 02:56:26;;;;;;;20.23;15.07;;;11.40;99.90;;;;;;5041483;28;20487;-60
2024/02/15 02:58:54;;;;;;;18.30;13.83;;;11.40;99.90;;;;;;5041784;28;20475;-60
2024/02/15 03:01:26;;;;;;;18.93;13.70;;;11.40;99.90;;;;;;5034849;28;20582;-60
2024/02/15 03:03:55;;;;;;;20.03;14.07;;;11.40;99.90;;;;;;5038568;28;20854;-60
2024/02/15 03:06:24;;;;;;;20.07;13.70;;;11.40;99.90;;;;;;5032282;28;20502;-60
2024/02/15 03:08:54;;;;;;;19.00;14.40;;;11.40;99.90;;;;;;5031706;28;20471;-60
2024/02/15 03:11:22;;;;;;;18.37;13.30;;;11.50;99.90;;;;;;5030785;28;20486;-60
2024/02/15 03:13:50;;;;;;;19.27;14.20;;;11.50;99.90;;;;;;5031590;28;20476;-60
2024/02/15 03:16:18;;;;;;;20.30;15.13;;;11.50;99.90;;;;;;5039588;28;20609;-60
2024/02/15 03:18:48;;;;;;;21.17;14.73;;;11.50;99.90;;;;;;5032323;28;20855;-60
2024/02/15 03:21:17;;;;;;;18.73;14.57;;;11.50;99.90;;;;;;5031420;28;21293;-60
2024/02/15 03:23:45;;;;;;;19.90;14.93;;;11.50;99.90;;;;;;5027304;28;20565;-60
2024/02/15 03:26:14;;;;;;;22.23;15.90;;;11.50;99.90;;;;;;5026617;28;20489;-60
2024/02/15 03:28:41;;;;;;;19.90;14.13;;;11.50;99.90;;;;;;5039579;28;20982;-60
2024/02/15 03:31:09;;;;;;;19.93;14.60;;;11.50;99.90;;;;;;5037145;28;20987;-60
2024/02/15 03:33:39;;;;;;;21.70;15.10;;;11.50;99.90;;;;;;5033885;28;20474;-60
2024/02/15 03:36:10;;;;;;;20.10;14.10;;;11.50;99.90;;;;;;5037601;28;20483;-59
2024/02/15 03:38:38;;;;;;;18.93;14.80;;;11.50;99.90;;;;;;5037805;28;20979;-60
2024/02/15 03:41:06;;;;;;;21.47;13.73;;;11.50;99.90;;;;;;5037710;28;20510;-60
2024/02/15 03:43:34;;;;;;;16.20;13.40;;;11.50;99.90;;;;;;5032215;28;20503;-60
2024/02/15 03:46:02;;;;;;;20.53;14.10;;;11.50;99.90;;;;;;5030407;28;20572;-60
2024/02/15 03:48:32;;;;;;;16.67;13.00;;;11.50;99.90;;;;;;5034404;28;20467;-60
2024/02/15 03:51:01;;;;;;;16.67;12.30;;;11.50;99.90;;;;;;5038880;28;20485;-60
2024/02/15 03:53:38;;;;;;;18.70;12.60;;;11.50;99.90;;;;;;5036975;28;20470;-60
2024/02/15 03:56:06;;;;;;;15.47;12.60;;;11.50;99.90;;;;;;5037440;28;20526;-60
2024/02/15 03:58:36;;;;;;;18.40;13.00;;;11.50;99.90;;;;;;5028904;28;20566;-60
2024/02/15 04:01:06;;;;;;;17.57;13.07;;;11.50;99.90;;;;;;5028950;28;21061;-60
2024/02/15 04:03:34;;;;;;;19.30;12.37;;;11.50;99.90;;;;;;5038724;28;20474;-60
2024/02/15 04:06:03;;;;;;;17.80;13.50;;;11.50;99.90;;;;;;5037722;28;20579;-60
2024/02/15 04:08:33;;;;;;;21.00;14.10;;;11.50;99.90;;;;;;5031302;28;20842;-60
2024/02/15 04:11:01;;;;;;;17.50;13.03;;;11.50;99.90;;;;;;5027598;28;20855;-60
2024/02/15 04:13:29;;;;;;;22.30;15.10;;;11.50;99.90;;;;;;5022138;28;20799;-59
2024/02/15 04:15:57;;;;;;;22.73;15.20;;;11.50;99.90;;;;;;5030848;28;21216;-60
2024/02/15 04:18:25;;;;;;;18.53;13.67;;;11.50;99.90;;;;;;5028721;28;21004;-60
2024/02/15 04:20:53;;;;;;;20.33;14.40;;;11.50;99.90;;;;;;5031774;28;20474;-60
2024/02/15 04:23:21;;;;;;;20.13;14.87;;;11.50;99.90;;;;;;5037909;28;20485;-60
2024/02/15 04:25:51;;;;;;;19.40;14.13;;;11.50;99.90;;;;;;5033379;28;20617;-59
2024/02/15 04:28:20;;;;;;;19.20;14.10;;;11.60;99.90;;;;;;5034677;28;20629;-60
2024/02/15 04:30:48;;;;;;;21.10;13.83;;;11.60;99.90;;;;;;5034533;28;20562;-60
2024/02/15 04:33:16;;;;;;;21.57;15.77;;;11.60;99.90;;;;;;5037565;28;20473;-59
2024/02/15 04:35:45;;;;;;;21.10;14.87;;;11.60;99.90;;;;;;5037036;28;20467;-60
2024/02/15 04:38:13;;;;;;;20.60;14.37;;;11.60;99.90;;;;;;5036180;28;20850;-60
2024/02/15 04:40:41;;;;;;;20.90;14.33;;;11.60;99.90;;;;;;5023876;28;20858;-60
2024/02/15 04:43:10;;;;;;;21.80;15.90;;;11.60;99.90;;;;;;5030775;28;20561;-60
2024/02/15 04:45:38;;;;;;;19.33;14.63;;;11.60;99.90;;;;;;5032490;28;20590;-60
2024/02/15 04:48:07;;;;;;;22.50;15.03;;;11.60;99.90;;;;;;5035715;28;20474;-60
2024/02/15 04:50:36;;;;;;;20.13;14.13;;;11.60;99.90;;;;;;5032350;28;20533;-60
2024/02/15 04:53:05;;;;;;;21.10;15.53;;;11.60;99.90;;;;;;5036148;28;20921;-60
2024/02/15 04:55:35;;;;;;;21.10;14.60;;;11.60;99.90;;;;;;5034801;28;20467;-60
2024/02/15 04:58:04;;;;;;;27.43;17.10;;;11.60;99.90;;;;;;5035294;28;20490;-60
2024/02/15 05:00:33;;;;;;;21.13;15.60;;;11.60;99.90;;;;;;5037132;28;20528;-59
2024/02/15 05:03:01;;;;;;;21.87;15.87;;;11.60;99.90;;;;;;5033823;28;20843;-60
2024/02/15 05:05:29;;;;;;;21.53;16.33;;;11.60;99.90;;;;;;5027629;28;21289;-60
2024/02/15 05:07:57;;;;;;;21.17;15.30;;;11.60;99.90;;;;;;5025213;28;20571;-60
2024/02/15 05:10:25;;;;;;;24.50;16.83;;;11.60;99.90;;;;;;5030506;28;20466;-59
2024/02/15 05:12:55;;;;;;;26.53;15.80;;;11.60;99.90;;;;;;5027423;28;20475;-59
2024/02/15 05:15:25;;;;;;;20.07;15.20;;;11.60;99.90;;;;;;5037546;28;21010;-60
2024/02/15 05:17:55;;;;;;;20.80;14.57;;;11.60;99.90;;;;;;5034602;28;21019;-59
2024/02/15 05:20:25;;;;;;;22.60;15.53;;;11.60;99.90;;;;;;5038620;28;20997;-60
2024/02/15 05:22:53;;;;;;;23.63;15.20;;;11.60;99.90;;;;;;5036069;28;20967;-60
2024/02/15 05:25:23;;;;;;;24.53;16.27;;;11.60;99.90;;;;;;5037885;28;20491;-60
2024/02/15 05:27:54;;;;;;;24.57;16.10;;;11.60;99.90;;;;;;5018368;28;20489;-59
2024/02/15 05:30:25;;;;;;;25.63;15.50;;;11.60;99.90;;;;;;5024606;28;20569;-59
2024/02/15 05:32:56;;;;;;;23.77;16.23;;;11.60;99.90;;;;;;5021676;28;20482;-59
2024/02/15 05:35:25;;;;;;;24.67;17.17;;;11.60;99.90;;;;;;5028696;28;20471;-59
2024/02/15 05:37:53;;;;;;;24.20;17.60;;;11.60;99.90;;;;;;5024119;28;21045;-60
2024/02/15 05:40:21;;;;;;;24.57;15.03;;;11.60;99.90;;;;;;5027889;28;21585;-60
2024/02/15 05:42:56;;;;;;;20.83;14.77;;;11.60;99.90;;;;;;5027671;28;20865;-60
2024/02/15 05:45:34;;;;;;;22.40;16.13;;;11.60;99.90;;;;;;5036263;28;20494;-60
2024/02/15 05:48:07;;;;;;;24.03;16.17;;;11.60;99.90;;;;;;5034338;28;20498;-60
2024/02/15 05:50:36;;;;;;;26.33;16.37;;;11.60;99.90;;;;;;5031387;28;20467;-60
2024/02/15 05:53:04;;;;;;;23.70;16.53;;;11.60;99.90;;;;;;5029448;28;20464;-60
2024/02/15 05:55:34;;;;;;;23.87;16.33;;;11.60;99.90;;;;;;5027153;28;20477;-60
2024/02/15 05:58:03;;;;;;;23.87;16.23;;;11.60;99.90;;;;;;5026166;28;20505;-59
2024/02/15 06:00:33;;;;;;;22.30;16.43;;;11.60;99.90;;;;;;5036575;28;20502;-60
2024/02/15 06:03:03;;;;;;;24.33;15.73;;;11.60;99.90;;;;;;5027699;28;20475;-58
2024/02/15 06:05:32;;;;;;;25.97;15.87;;;11.60;99.90;;;;;;5030291;28;20586;-59
2024/02/15 06:08:00;;;;;;;22.90;16.60;;;11.60;99.90;;;;;;5031184;28;20482;-59
2024/02/15 06:10:29;;;;;;;24.20;15.77;;;11.60;99.90;;;;;;5025734;28;21117;-60
2024/02/15 06:12:59;;;;;;;24.80;16.43;;;11.60;99.90;;;;;;5022026;28;21009;-59
2024/02/15 06:15:27;;;;;;;23.47;16.30;;;11.60;99.90;;;;;;5024167;28;20997;-59
2024/02/15 06:17:55;;;;;;;23.67;14.30;;;11.60;99.90;;;;;;5025147;28;20492;-60
2024/02/15 06:20:26;;;;;;;26.10;17.30;;;11.60;99.90;;;;;;5030540;28;20485;-60
2024/02/15 06:22:55;;;;;;;27.17;17.80;;;11.70;99.90;;;;;;5032239;28;20934;-60
2024/02/15 06:25:23;;;;;;;26.07;17.80;;;11.60;99.90;;;;;;5034770;28;20503;-59
2024/02/15 06:27:58;;;;;;;26.30;17.00;;;11.60;99.90;;;;;;5034732;28;20509;-60
2024/02/15 06:41:41;;;;;;;27.73;17.30;;;11.60;99.90;;;;;;5028967;28;20522;-60
2024/02/15 06:44:09;;;;;;;27.80;15.93;;;11.60;99.90;;;;;;5025866;28;20939;-60
2024/02/15 06:46:37;;;;;;;26.87;16.60;;;11.60;99.90;;;;;;5027674;28;21066;-60
2024/02/15 06:49:05;;;;;;;30.70;17.43;;;11.60;99.90;;;;;;5030541;28;20565;-58
2024/02/15 06:51:35;;;;;;;30.47;18.10;;;11.60;99.90;;;;;;5026808;28;21163;-60
2024/02/15 06:54:03;;;;;;;30.67;17.83;;;11.60;99.90;;;;;;5030153;28;20841;-58
2024/02/15 06:56:31;;;;;;;30.57;17.50;;;11.60;99.90;;;;;;5031422;28;20497;-60
2024/02/15 06:58:59;;;;;;;31.97;18.50;;;11.60;99.90;;;;;;5026910;28;20497;-60
2024/02/15 07:01:28;;;;;;;29.67;17.63;;;11.60;99.90;;;;;;5030651;28;20490;-60
2024/02/15 07:03:56;;;;;;;35.47;19.20;;;11.60;99.90;;;;;;5032715;28;20526;-60
2024/02/15 07:06:27;;;;;;;29.50;17.27;;;11.60;99.90;;;;;;5027122;28;21033;-60
2024/02/15 07:08:57;;;;;;;30.00;19.50;;;11.70;99.90;;;;;;5031902;28;20462;-60
2024/02/15 07:11:26;;;;;;;32.43;18.70;;;11.70;99.90;;;;;;5031940;28;20859;-60
2024/02/15 07:13:54;;;;;;;30.00;17.90;;;11.70;99.90;;;;;;5032468;28;20958;-58
2024/02/15 07:16:23;;;;;;;34.53;18.50;;;11.70;99.90;;;;;;5014172;28;20501;-59
2024/02/15 07:18:51;;;;;;;32.60;18.07;;;11.70;99.90;;;;;;5013797;28;20841;-60
2024/02/15 07:21:25;;;;;;;31.00;17.00;;;11.70;99.90;;;;;;5013723;28;20575;-58
2024/02/15 07:23:54;;;;;;;29.20;16.30;;;11.70;99.90;;;;;;5013883;28;20470;-59
2024/02/15 07:26:25;;;;;;;26.50;15.97;;;11.70;99.90;;;;;;5015945;28;20493;-59
2024/02/15 07:28:54;;;;;;;28.27;16.27;;;11.70;99.90;;;;;;5028208;28;20466;-60
2024/02/15 07:31:22;;;;;;;26.73;16.00;;;11.70;99.90;;;;;;5031360;28;20486;-60
2024/02/15 07:33:52;;;;;;;29.60;16.60;;;11.70;99.90;;;;;;5020745;28;20474;-58
2024/02/15 07:36:21;;;;;;;24.83;16.13;;;11.70;99.90;;;;;;5030858;28;21004;-59
2024/02/15 07:38:50;;;;;;;23.00;15.10;;;11.80;99.90;;;;;;5024580;28;20609;-60
2024/02/15 07:41:19;;;;;;;25.33;15.73;;;11.80;99.90;;;;;;5031471;28;20479;-60
2024/02/15 07:43:49;;;;;;;27.20;15.40;;;11.80;99.90;;;;;;5031430;28;20471;-60
2024/02/15 07:46:17;;;;;;;24.77;14.90;;;11.80;99.90;;;;;;5021919;28;20482;-60
2024/02/15 07:48:46;;;;;;;21.27;13.80;;;11.80;99.90;;;;;;5027159;28;20983;-59
2024/02/15 07:51:14;;;;;;;21.50;14.60;;;11.80;99.90;;;;;;5022586;28;20505;-59
2024/02/15 07:53:43;;;;;;;22.47;14.60;;;11.80;99.90;;;;;;5022295;28;20498;-59
2024/02/15 07:56:12;;;;;;;23.17;15.47;;;11.80;99.90;;;;;;5032810;28;20552;-59
2024/02/15 07:58:42;;;;;;;23.43;14.37;;;11.80;99.90;;;;;;5033059;28;20503;-59
2024/02/15 08:01:11;;;;;;;23.63;14.83;;;11.90;99.90;;;;;;5038827;28;20486;-59
2024/02/15 08:03:44;;;;;;;22.20;14.03;;;11.90;99.90;;;;;;5037497;28;20500;-59
2024/02/15 08:06:12;;;;;;;26.93;15.90;;;11.90;99.90;;;;;;5038694;28;20493;-59
2024/02/15 08:08:42;;;;;;;24.10;15.30;;;11.90;99.90;;;;;;5028823;28;20566;-57
2024/02/15 08:11:14;;;;;;;22.23;14.83;;;11.90;99.90;;;;;;5037864;28;20571;-59
2024/02/15 08:13:45;;;;;;;21.17;13.80;;;11.90;99.90;;;;;;5037498;28;20566;-60
2024/02/15 08:16:15;;;;;;;21.20;13.80;;;11.90;99.90;;;;;;5038606;28;20584;-58
2024/02/15 08:18:45;;;;;;;21.47;14.53;;;11.90;99.90;;;;;;5036223;28;20472;-59
2024/02/15 08:21:14;;;;;;;23.67;15.00;;;11.90;99.90;;;;;;5038423;28;20510;-59
2024/02/15 08:23:42;;;;;;;21.80;14.07;;;11.90;99.90;;;;;;5038949;28;20470;-59
2024/02/15 08:26:11;;;;;;;21.90;14.70;;;11.90;99.90;;;;;;5027742;28;21017;-59
2024/02/15 08:28:40;;;;;;;21.80;14.20;;;11.90;99.90;;;;;;5036630;28;20590;-58
2024/02/15 08:31:09;;;;;;;20.20;13.83;;;11.90;99.90;;;;;;5035918;28;20475;-58
2024/02/15 08:33:39;;;;;;;21.63;15.00;;;11.90;99.90;;;;;;5034824;28;21094;-59
2024/02/15 08:36:10;;;;;;;24.73;15.50;;;11.90;99.90;;;;;;5035308;28;20765;-58
2024/02/15 08:38:38;;;;;;;24.33;14.80;;;11.90;99.90;;;;;;5034718;28;20463;-59
2024/02/15 08:41:08;;;;;;;20.40;12.77;;;11.90;99.90;;;;;;5034967;28;20558;-59
2024/02/15 08:43:38;;;;;;;20.70;13.73;;;11.90;99.90;;;;;;5035112;28;20470;-59
2024/02/15 08:46:07;;;;;;;18.60;13.50;;;11.90;99.90;;;;;;5035591;28;21003;-59
2024/02/15 08:48:36;;;;;;;20.53;13.47;;;11.90;99.90;;;;;;5034278;28;20498;-59
2024/02/15 08:51:08;;;;;;;17.63;12.43;;;12.00;99.90;;;;;;5034391;28;20483;-59
2024/02/15 08:53:37;;;;;;;17.90;11.80;;;12.00;99.90;;;;;;5034099;28;20486;-59
2024/02/15 08:56:06;;;;;;;18.37;12.90;;;12.00;99.90;;;;;;5033186;28;20502;-59
2024/02/15 08:58:34;;;;;;;17.33;11.47;;;12.00;99.90;;;;;;5035308;28;20525;-58
2024/02/15 09:01:02;;;;;;;18.83;12.93;;;12.10;99.90;;;;;;5035095;28;20475;-59
2024/02/15 09:03:31;;;;;;;18.10;12.77;;;12.10;99.90;;;;;;5037151;28;20474;-58
2024/02/15 09:06:02;;;;;;;16.23;12.50;;;12.10;99.90;;;;;;5034343;28;20546;-58
2024/02/15 09:08:32;;;;;;;15.73;11.70;;;12.10;99.90;;;;;;5034839;28;20500;-59
2024/02/15 09:11:00;;;;;;;17.00;10.80;;;12.10;99.90;;;;;;5022136;28;20509;-59
2024/02/15 09:13:32;;;;;;;13.70;9.20;;;12.10;99.90;;;;;;5016446;28;20470;-57
2024/02/15 09:16:00;;;;;;;12.30;9.83;;;12.10;99.90;;;;;;5025098;28;20944;-58
2024/02/15 09:18:28;;;;;;;15.27;10.50;;;12.10;99.90;;;;;;5023605;28;21109;-58
2024/02/15 09:20:56;;;;;;;12.20;8.60;;;12.10;99.90;;;;;;5024170;28;20472;-58
2024/02/15 09:23:24;;;;;;;11.70;10.40;;;12.20;99.90;;;;;;5014581;28;20467;-57
2024/02/15 09:25:54;;;;;;;14.40;11.23;;;12.20;99.90;;;;;;5026075;28;20505;-56
2024/02/15 09:28:23;;;;;;;12.93;10.17;;;12.20;99.90;;;;;;5031851;28;20527;-59
2024/02/15 09:30:52;;;;;;;12.83;10.40;;;12.20;99.90;;;;;;5029326;28;20915;-58
2024/02/15 09:33:20;;;;;;;14.90;11.10;;;12.20;99.90;;;;;;5021619;28;20485;-59
2024/02/15 09:35:49;;;;;;;12.90;10.20;;;12.30;99.90;;;;;;5030706;28;20485;-61
2024/02/15 09:38:19;;;;;;;17.10;11.80;;;12.30;99.90;;;;;;5031567;28;21074;-58
2024/02/15 09:40:50;;;;;;;13.40;11.00;;;12.30;99.90;;;;;;5029731;28;20636;-61
2024/02/15 09:43:26;;;;;;;17.80;12.20;;;12.30;99.90;;;;;;5018210;28;20463;-58
2024/02/15 09:45:54;;;;;;;13.00;11.03;;;12.30;99.90;;;;;;5028874;28;20661;-58
2024/02/15 09:48:26;;;;;;;16.17;11.90;;;12.40;99.90;;;;;;5030824;28;20861;-59
2024/02/15 09:50:55;;;;;;;13.00;10.97;;;12.30;99.90;;;;;;5031007;28;20470;-58
2024/02/15 09:53:25;;;;;;;13.30;10.80;;;12.40;99.90;;;;;;5033034;28;20471;-58
2024/02/15 09:55:55;;;;;;;15.03;11.50;;;12.40;99.90;;;;;;5035525;28;21155;-59
2024/02/15 09:58:24;;;;;;;11.70;9.57;;;12.40;99.90;;;;;;5034801;28;20559;-58
2024/02/15 10:00:52;;;;;;;12.50;10.83;;;12.40;99.90;;;;;;5031742;28;20545;-59
2024/02/15 10:03:21;;;;;;;14.10;10.73;;;12.40;99.90;;;;;;5037702;28;20982;-59
2024/02/15 10:05:51;;;;;;;12.57;11.00;;;12.50;99.90;;;;;;5026411;28;20476;-59
2024/02/15 10:08:21;;;;;;;14.10;11.63;;;12.50;99.90;;;;;;5028760;28;20487;-59
2024/02/15 10:11:05;;;;;;;14.77;12.37;;;12.50;99.90;;;;;;5032936;28;20486;-59
2024/02/15 10:13:35;;;;;;;16.83;12.90;;;12.50;99.90;;;;;;5023320;28;20975;-60
2024/02/15 10:16:16;;;;;;;15.90;13.00;;;12.50;99.90;;;;;;5012042;28;20498;-58
2024/02/15 10:18:44;;;;;;;18.37;13.00;;;12.50;99.90;;;;;;5013127;28;20474;-60
2024/02/15 10:21:25;;;;;;;16.17;13.20;;;12.50;99.90;;;;;;5010205;28;20925;-59
2024/02/15 10:24:05;;;;;;;18.57;14.20;;;12.50;99.90;;;;;;5016736;28;20466;-59
2024/02/15 10:26:35;;;;;;;17.37;14.10;;;12.40;99.90;;;;;;5028332;28;20491;-58
2024/02/15 10:29:10;;;;;;;16.77;14.03;;;12.40;99.90;;;;;;5030690;28;20922;-60
2024/02/15 10:31:40;;;;;;;19.83;14.17;;;12.50;99.90;;;;;;5026866;28;21247;-59
2024/02/15 10:34:09;;;;;;;15.83;13.60;;;12.50;99.90;;;;;;5028356;28;20861;-60
2024/02/15 10:36:39;;;;;;;17.40;14.63;;;12.50;99.90;;;;;;5025891;28;20570;-58
2024/02/15 10:39:19;;;;;;;18.73;14.60;;;12.50;99.90;;;;;;5028598;28;20487;-58
2024/02/15 10:41:48;;;;;;;22.03;15.50;;;12.50;99.90;;;;;;5026326;28;20487;-60
2024/02/15 10:44:19;;;;;;;19.33;14.87;;;12.50;99.90;;;;;;5029818;28;20498;-61
2024/02/15 10:46:52;;;;;;;17.93;14.70;;;12.60;99.90;;;;;;5030320;28;20487;-58
2024/02/15 10:49:20;;;;;;;19.00;16.10;;;12.60;99.90;;;;;;5028241;28;20596;-59
2024/02/15 10:51:55;;;;;;;21.87;16.17;;;12.60;99.90;;;;;;5027435;28;20514;-59
2024/02/15 10:54:42;;;;;;;20.00;15.60;;;12.60;99.90;;;;;;5030089;28;20470;-60
2024/02/15 10:57:12;;;;;;;23.63;16.23;;;12.60;99.90;;;;;;5030020;28;20499;-60
2024/02/15 10:59:50;;;;;;;22.40;16.50;;;12.60;99.90;;;;;;5027043;28;20922;-60
2024/02/15 11:02:29;;;;;;;20.17;16.43;;;12.60;99.90;;;;;;5028401;28;20838;-59
2024/02/15 11:05:03;;;;;;;19.90;15.60;;;12.60;99.90;;;;;;5027951;28;20475;-59
2024/02/15 11:07:33;;;;;;;22.20;17.00;;;12.70;99.90;;;;;;5029121;28;21074;-59
2024/02/15 11:10:02;;;;;;;22.53;16.97;;;12.70;99.90;;;;;;5028351;28;20490;-60
2024/02/15 11:12:30;;;;;;;24.33;18.10;;;12.70;99.90;;;;;;5028423;28;20577;-59
2024/02/15 11:15:01;;;;;;;20.00;16.33;;;12.70;99.90;;;;;;5030207;28;20897;-60
2024/02/15 11:17:50;;;;;;;20.10;16.63;;;12.70;99.90;;;;;;5031224;28;20916;-60
2024/02/15 11:20:53;;;;;;;19.50;16.03;;;12.70;99.90;;;;;;5029838;28;21000;-59
2024/02/15 11:23:28;;;;;;;21.00;17.03;;;12.70;99.90;;;;;;5014923;28;20485;-58
2024/02/15 11:26:00;;;;;;;21.20;16.83;;;12.70;99.90;;;;;;5025497;28;20462;-60
2024/02/15 11:28:40;;;;;;;21.23;17.23;;;12.80;99.90;;;;;;5029672;28;20516;-60
2024/02/15 11:31:12;;;;;;;23.70;17.77;;;12.70;99.90;;;;;;5028141;28;21093;-59
2024/02/15 11:33:41;;;;;;;20.23;16.50;;;12.70;99.90;;;;;;5025685;28;20470;-58
2024/02/15 11:36:11;;;;;;;21.17;16.80;;;12.70;99.90;;;;;;5022779;28;20525;-60
2024/02/15 11:38:41;;;;;;;21.30;16.97;;;12.70;99.90;;;;;;5029820;28;20466;-59
2024/02/15 11:41:10;;;;;;;25.00;17.30;;;12.70;99.90;;;;;;5026108;28;20515;-59
2024/02/15 11:43:57;;;;;;;23.10;17.60;;;12.70;99.90;;;;;;5026605;28;20483;-58
2024/02/15 11:46:32;;;;;;;25.40;17.97;;;12.70;99.90;;;;;;5027132;28;20768;-59
2024/02/15 11:49:03;;;;;;;28.80;18.67;;;12.70;99.90;;;;;;5025657;28;20572;-60
2024/02/15 11:51:36;;;;;;;25.33;18.73;;;12.70;99.90;;;;;;5026335;28;20490;-60
2024/02/15 11:54:08;;;;;;;29.60;19.30;;;12.70;99.90;;;;;;5029875;28;20462;-60
2024/02/15 11:57:09;;;;;;;24.47;18.00;;;12.70;99.90;;;;;;5026614;28;21097;-59
2024/02/15 11:59:53;;;;;;;24.43;18.93;;;12.70;99.90;;;;;;5028582;28;21006;-60
2024/02/15 12:19:24;;;;;;;26.40;20.10;;;12.60;99.90;;;;;;5027549;28;20534;-60
2024/02/15 12:21:53;;;;;;;32.87;21.63;;;12.60;99.90;;;;;;5024334;28;20748;-58
2024/02/15 12:24:26;;;;;;;26.07;19.00;;;12.60;99.90;;;;;;5027206;28;20967;-59
2024/02/15 12:27:01;;;;;;;27.03;19.90;;;12.60;99.90;;;;;;5023277;28;20627;-59
2024/02/15 12:29:29;;;;;;;24.20;20.10;;;12.60;99.90;;;;;;5021292;28;20497;-59
2024/02/15 12:31:58;;;;;;;25.03;19.67;;;12.60;99.90;;;;;;5021872;28;20488;-60
2024/02/15 12:34:28;;;;;;;25.87;19.20;;;12.60;99.90;;;;;;5022642;28;20466;-60
2024/02/15 12:37:09;;;;;;;24.43;18.50;;;12.60;99.90;;;;;;5023323;28;20541;-59
2024/02/15 12:39:38;;;;;;;25.37;18.37;;;12.60;99.90;;;;;;5021338;28;20972;-59
2024/02/15 12:42:09;;;;;;;20.50;18.03;;;12.60;99.90;;;;;;5027686;28;20510;-59
2024/02/15 12:44:37;;;;;;;22.13;17.87;;;12.60;99.90;;;;;;5025168;28;20467;-58
2024/02/15 12:47:06;;;;;;;27.73;18.63;;;12.60;99.90;;;;;;5028526;28;20491;-58
2024/02/15 12:49:36;;;;;;;22.10;17.23;;;12.60;99.90;;;;;;5023598;28;20526;-58
2024/02/15 12:52:38;;;;;;;17.73;15.50;;;12.60;99.90;;;;;;5023070;28;20475;-59
2024/02/15 12:55:11;;;;;;;19.37;15.93;;;12.60;99.90;;;;;;5023421;28;20471;-59
2024/02/15 12:57:41;;;;;;;18.93;15.10;;;12.60;99.90;;;;;;5025082;28;20499;-58
2024/02/15 13:00:14;;;;;;;16.20;14.17;;;12.60;99.90;;;;;;5025619;28;20996;-58
2024/02/15 13:02:43;;;;;;;16.83;14.27;;;12.60;99.90;;;;;;5026255;28;20499;-60
2024/02/15 13:05:15;;;;;;;13.50;12.10;;;12.60;99.90;;;;;;5026681;28;20470;-59
2024/02/15 13:07:43;;;;;;;14.30;12.00;;;12.60;99.90;;;;;;5024113;28;21135;-58
2024/02/15 13:10:14;;;;;;;13.30;11.87;;;12.60;99.90;;;;;;5027947;28;20811;-60